Ava, Ohio
Current Conditions -  °F | °C
As of 4:53 PM on Friday 24 Oct 2014 (Local Time) from KZZV Reporting Station
Clear Clear  
Wind Chill: 16°   Ceiling: Unl
Heat Index: 16°   Visibility: 10mi
Dew Point:   Wind: 5mph
Humidity: 42%   Direction: 260°W
Pressure: 30.02"   Gusts: NA
Location:  39.83°N, 81.57°W
Report Text: KZZV 242053Z AUTO 26004KT 10SM CLR 16/03 A3002 RMK AO2 SLP166 T01610033 58017
Loading
Personal Weather Stations






























Interactive Weather Map
Tropical Storm Tracking
New forecast layout! Learn more

10-Day Weather Forecast

Advertisements
Track Severe Weather on mobile